Mills Orchard, California
Current Conditions -  °F | °C
As of 5:15 AM on Thursday 27 Nov 2014 (Local Time) from KCIC Reporting Station
Clear Clear  
Wind Chill: 46°   Ceiling: Unl
Heat Index: 48°   Visibility: 10mi
Dew Point: 45°   Wind: 6mph
Humidity: 87%   Direction: 70°ENE
Pressure: 30.2"   Gusts: NA
Location:  39.7429°N, 122.012°W
Report Text: KCIC 271315Z AUTO 07005KT 10SM CLR 09/07 A3020 RMK AO1
Loading
Personal Weather Stations






























Interactive Weather Map New forecast layout! Learn more

10-Day Weather Forecast

Advertisements
Track Severe Weather on mobile